sensor_id;sensor_type;location;lat;lon;timestamp;temperature;humidity
15872;DHT22;8035;51.962;7.162;2023-04-03T06:34:28;8.70;99.90
15872;DHT22;8035;51.962;7.162;2023-04-03T06:36:54;2.20;99.90
15872;DHT22;8035;51.962;7.162;2023-04-03T06:39:20;2.70;99.90
15872;DHT22;8035;51.962;7.162;2023-04-03T06:41:47;3.20;99.90
15872;DHT22;8035;51.962;7.162;2023-04-03T06:44:13;3.70;99.90
15872;DHT22;8035;51.962;7.162;2023-04-03T06:46:41;4.10;99.90
15872;DHT22;8035;51.962;7.162;2023-04-03T06:49:08;4.30;99.90
15872;DHT22;8035;51.962;7.162;2023-04-03T06:51:34;4.50;99.90
15872;DHT22;8035;51.962;7.162;2023-04-03T06:54:00;4.80;99.90
15872;DHT22;8035;51.962;7.162;2023-04-03T06:56:27;5.10;99.90
15872;DHT22;8035;51.962;7.162;2023-04-03T06:58:53;5.40;99.90
15872;DHT22;8035;51.962;7.162;2023-04-03T07:01:20;5.60;99.90
15872;DHT22;8035;51.962;7.162;2023-04-03T07:03:47;5.90;99.90
15872;DHT22;8035;51.962;7.162;2023-04-03T07:06:15;6.10;99.90
15872;DHT22;8035;51.962;7.162;2023-04-03T07:08:41;6.40;99.90
15872;DHT22;8035;51.962;7.162;2023-04-03T07:11:08;6.50;99.90
15872;DHT22;8035;51.962;7.162;2023-04-03T07:13:34;6.70;99.90
15872;DHT22;8035;51.962;7.162;2023-04-03T07:16:00;6.90;99.90
15872;DHT22;8035;51.962;7.162;2023-04-03T07:18:26;7.00;99.90
15872;DHT22;8035;51.962;7.162;2023-04-03T07:20:52;7.20;99.90
15872;DHT22;8035;51.962;7.162;2023-04-03T07:23:18;7.10;99.90
15872;DHT22;8035;51.962;7.162;2023-04-03T07:25:49;7.10;99.90
15872;DHT22;8035;51.962;7.162;2023-04-03T07:28:17;7.20;99.90
15872;DHT22;8035;51.962;7.162;2023-04-03T07:30:52;7.30;99.90
15872;DHT22;8035;51.962;7.162;2023-04-03T07:33:19;7.00;99.90
15872;DHT22;8035;51.962;7.162;2023-04-03T07:35:46;6.90;99.90
15872;DHT22;8035;51.962;7.162;2023-04-03T07:38:12;6.80;99.90
15872;DHT22;8035;51.962;7.162;2023-04-03T07:40:38;6.70;99.90
15872;DHT22;8035;51.962;7.162;2023-04-03T07:43:05;6.50;99.90
15872;DHT22;8035;51.962;7.162;2023-04-03T07:45:31;6.40;99.90
15872;DHT22;8035;51.962;7.162;2023-04-03T07:47:57;6.30;99.90
15872;DHT22;8035;51.962;7.162;2023-04-03T07:50:23;6.30;99.90
15872;DHT22;8035;51.962;7.162;2023-04-03T07:52:49;6.30;99.90
15872;DHT22;8035;51.962;7.162;2023-04-03T07:55:16;6.40;99.90
15872;DHT22;8035;51.962;7.162;2023-04-03T07:57:42;6.40;99.90
15872;DHT22;8035;51.962;7.162;2023-04-03T08:00:08;6.40;99.90
15872;DHT22;8035;51.962;7.162;2023-04-03T08:02:35;6.50;99.90
15872;DHT22;8035;51.962;7.162;2023-04-03T08:05:01;6.50;99.90
15872;DHT22;8035;51.962;7.162;2023-04-03T08:07:26;6.50;99.90
15872;DHT22;8035;51.962;7.162;2023-04-03T08:09:52;6.50;99.90
15872;DHT22;8035;51.962;7.162;2023-04-03T08:12:18;6.60;99.90
15872;DHT22;8035;51.962;7.162;2023-04-03T08:14:44;6.60;99.90
15872;DHT22;8035;51.962;7.162;2023-04-03T08:17:09;6.90;99.90
15872;DHT22;8035;51.962;7.162;2023-04-03T08:19:39;7.10;99.90
15872;DHT22;8035;51.962;7.162;2023-04-03T08:22:05;7.20;99.90
15872;DHT22;8035;51.962;7.162;2023-04-03T08:24:34;7.20;99.90
15872;DHT22;8035;51.962;7.162;2023-04-03T08:27:00;7.30;99.90
15872;DHT22;8035;51.962;7.162;2023-04-03T08:29:26;7.10;99.90
15872;DHT22;8035;51.962;7.162;2023-04-03T08:31:52;7.20;99.90
15872;DHT22;8035;51.962;7.162;2023-04-03T08:34:18;7.30;99.90
15872;DHT22;8035;51.962;7.162;2023-04-03T08:36:45;7.40;99.90
15872;DHT22;8035;51.962;7.162;2023-04-03T08:39:11;7.40;99.90
15872;DHT22;8035;51.962;7.162;2023-04-03T08:41:42;7.40;99.90
15872;DHT22;8035;51.962;7.162;2023-04-03T08:44:38;7.40;99.90
15872;DHT22;8035;51.962;7.162;2023-04-03T08:49:48;8.00;99.90
15872;DHT22;8035;51.962;7.162;2023-04-03T08:52:54;8.00;99.90
15872;DHT22;8035;51.962;7.162;2023-04-03T08:55:43;8.20;99.90
15872;DHT22;8035;51.962;7.162;2023-04-03T08:58:19;8.30;99.90
15872;DHT22;8035;51.962;7.162;2023-04-03T09:03:15;8.40;99.90
15872;DHT22;8035;51.962;7.162;2023-04-03T09:08:36;8.10;99.90
15872;DHT22;8035;51.962;7.162;2023-04-03T09:16:39;8.70;99.90
15872;DHT22;8035;51.962;7.162;2023-04-03T09:19:19;8.60;99.90
15872;DHT22;8035;51.962;7.162;2023-04-03T09:21:46;8.50;99.90
15872;DHT22;8035;51.962;7.162;2023-04-03T09:24:14;8.50;99.90
15872;DHT22;8035;51.962;7.162;2023-04-03T09:26:48;8.60;99.90
15872;DHT22;8035;51.962;7.162;2023-04-03T09:29:21;8.90;99.90
15872;DHT22;8035;51.962;7.162;2023-04-03T09:32:12;9.10;99.90
15872;DHT22;8035;51.962;7.162;2023-04-03T09:34:41;9.20;99.90
15872;DHT22;8035;51.962;7.162;2023-04-03T09:37:08;9.20;99.60
15872;DHT22;8035;51.962;7.162;2023-04-03T09:39:53;9.00;99.90
15872;DHT22;8035;51.962;7.162;2023-04-03T09:42:24;8.90;99.90
15872;DHT22;8035;51.962;7.162;2023-04-03T09:47:28;9.10;99.90
15872;DHT22;8035;51.962;7.162;2023-04-03T09:52:41;9.30;99.50
15872;DHT22;8035;51.962;7.162;2023-04-03T09:55:14;9.30;98.70
15872;DHT22;8035;51.962;7.162;2023-04-03T09:57:40;9.50;99.10
15872;DHT22;8035;51.962;7.162;2023-04-03T10:00:23;9.30;97.20
15872;DHT22;8035;51.962;7.162;2023-04-03T10:02:53;9.10;97.10
15872;DHT22;8035;51.962;7.162;2023-04-03T10:05:36;9.00;98.40
15872;DHT22;8035;51.962;7.162;2023-04-03T10:08:20;9.20;98.70
15872;DHT22;8035;51.962;7.162;2023-04-03T10:10:48;9.20;99.00
15872;DHT22;8035;51.962;7.162;2023-04-03T10:13:16;9.40;99.40
15872;DHT22;8035;51.962;7.162;2023-04-03T10:16:07;9.50;97.90
15872;DHT22;8035;51.962;7.162;2023-04-03T10:21:38;9.40;97.90
15872;DHT22;8035;51.962;7.162;2023-04-03T10:24:13;9.50;99.00
15872;DHT22;8035;51.962;7.162;2023-04-03T10:30:14;9.80;97.90
15872;DHT22;8035;51.962;7.162;2023-04-03T10:38:03;9.70;98.00
15872;DHT22;8035;51.962;7.162;2023-04-03T10:41:16;9.80;96.70
15872;DHT22;8035;51.962;7.162;2023-04-03T10:43:40;9.90;97.60
15872;DHT22;8035;51.962;7.162;2023-04-03T10:46:16;10.10;98.00
15872;DHT22;8035;51.962;7.162;2023-04-03T10:51:40;10.20;96.10
15872;DHT22;8035;51.962;7.162;2023-04-03T10:57:21;10.10;96.80
15872;DHT22;8035;51.962;7.162;2023-04-03T10:59:46;9.90;95.30
15872;DHT22;8035;51.962;7.162;2023-04-03T11:05:05;10.10;94.70
15872;DHT22;8035;51.962;7.162;2023-04-03T11:07:38;10.10;94.80
15872;DHT22;8035;51.962;7.162;2023-04-03T11:13:31;10.00;94.80
15872;DHT22;8035;51.962;7.162;2023-04-03T11:15:58;10.10;96.00
15872;DHT22;8035;51.962;7.162;2023-04-03T11:18:31;10.30;94.90
15872;DHT22;8035;51.962;7.162;2023-04-03T11:21:04;10.40;96.00
15872;DHT22;8035;51.962;7.162;2023-04-03T11:23:35;10.50;96.10
15872;DHT22;8035;51.962;7.162;2023-04-03T11:26:13;10.70;97.10
15872;DHT22;8035;51.962;7.162;2023-04-03T11:28:40;10.70;94.70
15872;DHT22;8035;51.962;7.162;2023-04-03T11:36:58;10.40;96.30
15872;DHT22;8035;51.962;7.162;2023-04-03T11:39:30;10.70;97.30
15872;DHT22;8035;51.962;7.162;2023-04-03T11:44:48;11.00;97.00
15872;DHT22;8035;51.962;7.162;2023-04-03T11:47:44;11.10;96.50
15872;DHT22;8035;51.962;7.162;2023-04-03T17:54:11;11.40;97.50
15872;DHT22;8035;51.962;7.162;2023-04-03T17:56:37;7.10;99.90
15872;DHT22;8035;51.962;7.162;2023-04-03T17:59:03;7.00;99.90
15872;DHT22;8035;51.962;7.162;2023-04-03T18:01:31;6.90;99.90
15872;DHT22;8035;51.962;7.162;2023-04-03T18:04:01;6.80;99.90
15872;DHT22;8035;51.962;7.162;2023-04-03T18:06:30;6.80;99.90
15872;DHT22;8035;51.962;7.162;2023-04-03T18:09:05;6.80;99.90
15872;DHT22;8035;51.962;7.162;2023-04-03T18:11:32;6.70;99.90
15872;DHT22;8035;51.962;7.162;2023-04-03T18:13:59;6.60;99.90
15872;DHT22;8035;51.962;7.162;2023-04-03T18:16:26;6.50;99.90
15872;DHT22;8035;51.962;7.162;2023-04-03T18:18:52;6.40;99.90
15872;DHT22;8035;51.962;7.162;2023-04-03T18:24:05;6.30;99.90
15872;DHT22;8035;51.962;7.162;2023-04-03T18:26:32;6.30;99.90
15872;DHT22;8035;51.962;7.162;2023-04-03T18:29:00;6.30;99.90
15872;DHT22;8035;51.962;7.162;2023-04-03T18:31:27;6.30;99.90
15872;DHT22;8035;51.962;7.162;2023-04-03T18:33:55;6.20;99.90
15872;DHT22;8035;51.962;7.162;2023-04-03T18:36:24;6.20;99.90
15872;DHT22;8035;51.962;7.162;2023-04-03T18:38:50;6.10;99.90
15872;DHT22;8035;51.962;7.162;2023-04-03T18:41:16;6.10;99.90
15872;DHT22;8035;51.962;7.162;2023-04-03T18:43:42;6.00;99.90
15872;DHT22;8035;51.962;7.162;2023-04-03T18:46:08;6.00;99.90
15872;DHT22;8035;51.962;7.162;2023-04-03T18:48:35;5.90;99.90
15872;DHT22;8035;51.962;7.162;2023-04-03T18:51:01;5.80;99.90
15872;DHT22;8035;51.962;7.162;2023-04-03T18:53:27;5.70;99.90
15872;DHT22;8035;51.962;7.162;2023-04-03T18:55:53;5.60;99.90
15872;DHT22;8035;51.962;7.162;2023-04-03T18:58:19;5.50;99.90
15872;DHT22;8035;51.962;7.162;2023-04-03T19:00:44;5.50;99.90
15872;DHT22;8035;51.962;7.162;2023-04-03T19:03:10;5.40;99.90
15872;DHT22;8035;51.962;7.162;2023-04-03T19:05:38;5.30;99.90
15872;DHT22;8035;51.962;7.162;2023-04-03T19:08:04;5.20;99.90
15872;DHT22;8035;51.962;7.162;2023-04-03T19:10:30;5.10;99.90
